Rancho Cucamonga, California
Current Conditions -  °F | °C
As of 5:53 AM on Friday 24 Oct 2014 (Local Time) from KONT Reporting Station
Clear Clear  
Wind Chill: 62°   Ceiling: Unl
Heat Index: 62°   Visibility: 10mi
Dew Point: 43°   Wind: 3mph
Humidity: 50%   Direction: 40°NE
Pressure: 29.98"   Gusts: NA
Location:  34.1°N, 117.57°W
Report Text: KONT 241253Z 04003KT 10SM CLR 17/06 A2998 RMK AO2 SLP139 T01670061
Loading
Personal Weather Stations






























Interactive Weather Map
Tropical Storm Tracking
New forecast layout! Learn more

10-Day Weather Forecast

Advertisements
Track Severe Weather on mobile